sensor_id;sensor_type;location;lat;lon;timestamp;temperature;humidity
52203;DHT22;38173;52.850;6.970;2023-05-23T00:00:31;14.60;99.90
52203;DHT22;38173;52.850;6.970;2023-05-23T00:02:58;14.60;99.90
52203;DHT22;38173;52.850;6.970;2023-05-23T00:05:28;14.60;99.90
52203;DHT22;38173;52.850;6.970;2023-05-23T00:07:57;14.60;99.90
52203;DHT22;38173;52.850;6.970;2023-05-23T00:10:23;14.60;99.90
52203;DHT22;38173;52.850;6.970;2023-05-23T00:12:49;14.60;99.90
52203;DHT22;38173;52.850;6.970;2023-05-23T00:15:15;14.50;99.90
52203;DHT22;38173;52.850;6.970;2023-05-23T00:17:41;14.50;99.90
52203;DHT22;38173;52.850;6.970;2023-05-23T00:20:07;14.50;99.90
52203;DHT22;38173;52.850;6.970;2023-05-23T00:22:39;14.50;99.90
52203;DHT22;38173;52.850;6.970;2023-05-23T00:25:10;14.40;99.90
52203;DHT22;38173;52.850;6.970;2023-05-23T00:27:36;14.40;99.90
52203;DHT22;38173;52.850;6.970;2023-05-23T00:30:03;14.40;99.90
52203;DHT22;38173;52.850;6.970;2023-05-23T00:32:31;14.30;99.90
52203;DHT22;38173;52.850;6.970;2023-05-23T00:35:00;14.30;99.90
52203;DHT22;38173;52.850;6.970;2023-05-23T00:37:26;14.30;99.90
52203;DHT22;38173;52.850;6.970;2023-05-23T00:39:58;14.30;99.90
52203;DHT22;38173;52.850;6.970;2023-05-23T00:42:24;14.30;99.90
52203;DHT22;38173;52.850;6.970;2023-05-23T00:44:50;14.30;99.90
52203;DHT22;38173;52.850;6.970;2023-05-23T00:47:16;14.20;99.90
52203;DHT22;38173;52.850;6.970;2023-05-23T00:49:42;14.20;99.90
52203;DHT22;38173;52.850;6.970;2023-05-23T00:52:08;14.20;99.90
52203;DHT22;38173;52.850;6.970;2023-05-23T00:54:34;14.20;99.90
52203;DHT22;38173;52.850;6.970;2023-05-23T00:57:01;14.20;99.90
52203;DHT22;38173;52.850;6.970;2023-05-23T00:59:27;14.20;99.90
52203;DHT22;38173;52.850;6.970;2023-05-23T01:01:56;14.20;99.90
52203;DHT22;38173;52.850;6.970;2023-05-23T01:04:22;14.20;99.90
52203;DHT22;38173;52.850;6.970;2023-05-23T01:06:51;14.10;99.90
52203;DHT22;38173;52.850;6.970;2023-05-23T01:09:18;14.10;99.90
52203;DHT22;38173;52.850;6.970;2023-05-23T01:14:50;14.10;99.90
52203;DHT22;38173;52.850;6.970;2023-05-23T01:17:25;14.10;99.90
52203;DHT22;38173;52.850;6.970;2023-05-23T01:19:56;14.10;99.90
52203;DHT22;38173;52.850;6.970;2023-05-23T01:22:32;14.10;99.90
52203;DHT22;38173;52.850;6.970;2023-05-23T01:25:14;14.10;99.90
52203;DHT22;38173;52.850;6.970;2023-05-23T01:27:53;14.00;99.90
52203;DHT22;38173;52.850;6.970;2023-05-23T01:30:20;14.00;99.90
52203;DHT22;38173;52.850;6.970;2023-05-23T01:32:48;14.00;99.90
52203;DHT22;38173;52.850;6.970;2023-05-23T01:35:20;14.10;99.90
52203;DHT22;38173;52.850;6.970;2023-05-23T01:37:46;14.10;99.90
52203;DHT22;38173;52.850;6.970;2023-05-23T01:40:12;14.00;99.90
52203;DHT22;38173;52.850;6.970;2023-05-23T01:42:38;14.00;99.90
52203;DHT22;38173;52.850;6.970;2023-05-23T01:45:04;14.00;99.90
52203;DHT22;38173;52.850;6.970;2023-05-23T01:47:30;14.00;99.90
52203;DHT22;38173;52.850;6.970;2023-05-23T01:49:56;14.00;99.90
52203;DHT22;38173;52.850;6.970;2023-05-23T01:52:22;14.00;99.90
52203;DHT22;38173;52.850;6.970;2023-05-23T01:54:48;13.90;99.90
52203;DHT22;38173;52.850;6.970;2023-05-23T01:57:15;13.90;99.90
52203;DHT22;38173;52.850;6.970;2023-05-23T01:59:44;13.90;99.90
52203;DHT22;38173;52.850;6.970;2023-05-23T02:02:10;13.90;99.90
52203;DHT22;38173;52.850;6.970;2023-05-23T02:04:36;13.90;99.90
52203;DHT22;38173;52.850;6.970;2023-05-23T02:07:01;13.80;99.90
52203;DHT22;38173;52.850;6.970;2023-05-23T02:09:27;13.90;99.90
52203;DHT22;38173;52.850;6.970;2023-05-23T02:11:53;13.80;99.90
52203;DHT22;38173;52.850;6.970;2023-05-23T02:14:19;13.80;99.90
52203;DHT22;38173;52.850;6.970;2023-05-23T02:16:45;13.70;99.90
52203;DHT22;38173;52.850;6.970;2023-05-23T02:19:11;13.70;99.90
52203;DHT22;38173;52.850;6.970;2023-05-23T02:21:36;13.70;99.90
52203;DHT22;38173;52.850;6.970;2023-05-23T02:24:02;13.60;99.90
52203;DHT22;38173;52.850;6.970;2023-05-23T02:26:28;13.60;99.90
52203;DHT22;38173;52.850;6.970;2023-05-23T02:28:53;13.60;99.90
52203;DHT22;38173;52.850;6.970;2023-05-23T02:31:20;13.60;99.90
52203;DHT22;38173;52.850;6.970;2023-05-23T02:33:46;13.60;99.90
52203;DHT22;38173;52.850;6.970;2023-05-23T02:36:12;13.50;99.90
52203;DHT22;38173;52.850;6.970;2023-05-23T02:38:37;13.50;99.90
52203;DHT22;38173;52.850;6.970;2023-05-23T02:41:03;13.50;99.90
52203;DHT22;38173;52.850;6.970;2023-05-23T02:43:29;13.50;99.90
52203;DHT22;38173;52.850;6.970;2023-05-23T02:45:55;13.40;99.90
52203;DHT22;38173;52.850;6.970;2023-05-23T02:48:21;13.40;99.90
52203;DHT22;38173;52.850;6.970;2023-05-23T02:50:47;13.40;99.90
52203;DHT22;38173;52.850;6.970;2023-05-23T02:53:13;13.30;99.90
52203;DHT22;38173;52.850;6.970;2023-05-23T02:55:41;13.30;99.90
52203;DHT22;38173;52.850;6.970;2023-05-23T02:58:07;13.30;99.90
52203;DHT22;38173;52.850;6.970;2023-05-23T03:00:36;13.30;99.90
52203;DHT22;38173;52.850;6.970;2023-05-23T03:03:01;13.20;99.90
52203;DHT22;38173;52.850;6.970;2023-05-23T03:05:27;13.20;99.90
52203;DHT22;38173;52.850;6.970;2023-05-23T03:07:53;13.10;99.90
52203;DHT22;38173;52.850;6.970;2023-05-23T03:10:19;13.10;99.90
52203;DHT22;38173;52.850;6.970;2023-05-23T03:12:45;13.00;99.90
52203;DHT22;38173;52.850;6.970;2023-05-23T03:15:11;13.00;99.90
52203;DHT22;38173;52.850;6.970;2023-05-23T03:17:37;13.00;99.90
52203;DHT22;38173;52.850;6.970;2023-05-23T03:20:03;13.00;99.90
52203;DHT22;38173;52.850;6.970;2023-05-23T03:22:30;12.90;99.90
52203;DHT22;38173;52.850;6.970;2023-05-23T03:24:56;12.90;99.90
52203;DHT22;38173;52.850;6.970;2023-05-23T03:27:22;12.90;99.90
52203;DHT22;38173;52.850;6.970;2023-05-23T03:29:48;12.80;99.90
52203;DHT22;38173;52.850;6.970;2023-05-23T03:32:15;12.80;99.90
52203;DHT22;38173;52.850;6.970;2023-05-23T03:34:41;12.80;99.90
52203;DHT22;38173;52.850;6.970;2023-05-23T03:37:12;12.80;99.90
52203;DHT22;38173;52.850;6.970;2023-05-23T03:39:41;12.70;99.90
52203;DHT22;38173;52.850;6.970;2023-05-23T03:42:12;12.70;99.90
52203;DHT22;38173;52.850;6.970;2023-05-23T03:44:38;12.70;99.90
52203;DHT22;38173;52.850;6.970;2023-05-23T03:47:05;12.70;99.90
52203;DHT22;38173;52.850;6.970;2023-05-23T03:49:34;12.60;99.90
52203;DHT22;38173;52.850;6.970;2023-05-23T03:52:01;12.60;99.90
52203;DHT22;38173;52.850;6.970;2023-05-23T03:54:27;12.60;99.90
52203;DHT22;38173;52.850;6.970;2023-05-23T03:56:53;12.50;99.90
52203;DHT22;38173;52.850;6.970;2023-05-23T03:59:19;12.40;99.90
52203;DHT22;38173;52.850;6.970;2023-05-23T04:01:45;12.40;99.90
52203;DHT22;38173;52.850;6.970;2023-05-23T04:04:11;12.30;99.90
52203;DHT22;38173;52.850;6.970;2023-05-23T04:06:37;12.30;99.90
52203;DHT22;38173;52.850;6.970;2023-05-23T04:09:03;12.30;99.90
52203;DHT22;38173;52.850;6.970;2023-05-23T04:11:30;12.20;99.90
52203;DHT22;38173;52.850;6.970;2023-05-23T04:14:04;12.20;99.90
52203;DHT22;38173;52.850;6.970;2023-05-23T04:16:30;12.10;99.90
52203;DHT22;38173;52.850;6.970;2023-05-23T04:19:03;12.10;99.90
52203;DHT22;38173;52.850;6.970;2023-05-23T04:21:33;12.10;99.90
52203;DHT22;38173;52.850;6.970;2023-05-23T04:24:01;12.10;99.90
52203;DHT22;38173;52.850;6.970;2023-05-23T04:26:27;12.10;99.90
52203;DHT22;38173;52.850;6.970;2023-05-23T04:28:54;12.00;99.90
52203;DHT22;38173;52.850;6.970;2023-05-23T04:31:20;12.00;99.90
52203;DHT22;38173;52.850;6.970;2023-05-23T04:33:47;12.00;99.90
52203;DHT22;38173;52.850;6.970;2023-05-23T04:36:15;12.00;99.90
52203;DHT22;38173;52.850;6.970;2023-05-23T04:38:41;12.00;99.90
52203;DHT22;38173;52.850;6.970;2023-05-23T04:41:09;12.00;99.90
52203;DHT22;38173;52.850;6.970;2023-05-23T04:43:41;12.00;99.90
52203;DHT22;38173;52.850;6.970;2023-05-23T04:46:19;11.90;99.90
52203;DHT22;38173;52.850;6.970;2023-05-23T04:48:53;11.90;99.90
52203;DHT22;38173;52.850;6.970;2023-05-23T04:51:23;11.90;99.90
52203;DHT22;38173;52.850;6.970;2023-05-23T04:53:50;11.90;99.90
52203;DHT22;38173;52.850;6.970;2023-05-23T04:56:20;11.90;99.90
52203;DHT22;38173;52.850;6.970;2023-05-23T04:59:01;11.90;99.90
52203;DHT22;38173;52.850;6.970;2023-05-23T05:01:27;11.90;99.90
52203;DHT22;38173;52.850;6.970;2023-05-23T05:03:56;11.90;99.90
52203;DHT22;38173;52.850;6.970;2023-05-23T05:06:25;11.80;99.90
52203;DHT22;38173;52.850;6.970;2023-05-23T05:08:51;11.80;99.90
52203;DHT22;38173;52.850;6.970;2023-05-23T05:11:18;11.90;99.90
52203;DHT22;38173;52.850;6.970;2023-05-23T05:13:44;11.90;99.90
52203;DHT22;38173;52.850;6.970;2023-05-23T05:16:10;11.90;99.90
52203;DHT22;38173;52.850;6.970;2023-05-23T05:18:37;11.90;99.90
52203;DHT22;38173;52.850;6.970;2023-05-23T05:21:04;11.90;99.90
52203;DHT22;38173;52.850;6.970;2023-05-23T05:23:34;11.90;99.90
52203;DHT22;38173;52.850;6.970;2023-05-23T05:26:06;11.90;99.90
52203;DHT22;38173;52.850;6.970;2023-05-23T05:28:33;11.80;99.90
52203;DHT22;38173;52.850;6.970;2023-05-23T05:31:02;11.80;99.90
52203;DHT22;38173;52.850;6.970;2023-05-23T05:33:32;11.80;99.90
52203;DHT22;38173;52.850;6.970;2023-05-23T05:36:01;11.80;99.90
52203;DHT22;38173;52.850;6.970;2023-05-23T05:38:30;11.80;99.90
52203;DHT22;38173;52.850;6.970;2023-05-23T05:40:56;11.80;99.90
52203;DHT22;38173;52.850;6.970;2023-05-23T05:43:22;11.80;99.90
52203;DHT22;38173;52.850;6.970;2023-05-23T05:45:48;11.80;99.90
52203;DHT22;38173;52.850;6.970;2023-05-23T05:48:18;11.80;99.90
52203;DHT22;38173;52.850;6.970;2023-05-23T05:50:47;11.80;99.90
52203;DHT22;38173;52.850;6.970;2023-05-23T05:53:14;11.80;99.90
52203;DHT22;38173;52.850;6.970;2023-05-23T05:55:49;11.70;99.90
52203;DHT22;38173;52.850;6.970;2023-05-23T05:58:16;11.70;99.90
52203;DHT22;38173;52.850;6.970;2023-05-23T06:00:46;11.70;99.90
52203;DHT22;38173;52.850;6.970;2023-05-23T06:03:22;11.60;99.90
52203;DHT22;38173;52.850;6.970;2023-05-23T06:05:49;11.60;99.90
52203;DHT22;38173;52.850;6.970;2023-05-23T06:08:16;11.60;99.90
52203;DHT22;38173;52.850;6.970;2023-05-23T06:10:44;11.60;99.90
52203;DHT22;38173;52.850;6.970;2023-05-23T06:13:14;11.50;99.90
52203;DHT22;38173;52.850;6.970;2023-05-23T06:15:43;11.50;99.90
52203;DHT22;38173;52.850;6.970;2023-05-23T06:18:09;11.50;99.90
52203;DHT22;38173;52.850;6.970;2023-05-23T06:20:37;11.50;99.90
52203;DHT22;38173;52.850;6.970;2023-05-23T06:23:03;11.50;99.90
52203;DHT22;38173;52.850;6.970;2023-05-23T06:25:30;11.40;99.90
52203;DHT22;38173;52.850;6.970;2023-05-23T06:28:02;11.30;99.90
52203;DHT22;38173;52.850;6.970;2023-05-23T06:30:37;11.30;99.90
52203;DHT22;38173;52.850;6.970;2023-05-23T06:33:09;11.30;99.90
52203;DHT22;38173;52.850;6.970;2023-05-23T06:35:36;11.30;99.90
52203;DHT22;38173;52.850;6.970;2023-05-23T06:38:02;11.30;99.90
52203;DHT22;38173;52.850;6.970;2023-05-23T06:40:30;11.30;99.90
52203;DHT22;38173;52.850;6.970;2023-05-23T06:43:02;11.30;99.90
52203;DHT22;38173;52.850;6.970;2023-05-23T06:45:28;11.40;99.90
52203;DHT22;38173;52.850;6.970;2023-05-23T06:47:54;11.30;99.90
52203;DHT22;38173;52.850;6.970;2023-05-23T06:50:21;11.30;99.90
52203;DHT22;38173;52.850;6.970;2023-05-23T06:52:48;11.40;99.90
52203;DHT22;38173;52.850;6.970;2023-05-23T06:55:17;11.40;99.90
52203;DHT22;38173;52.850;6.970;2023-05-23T06:57:50;11.40;99.90
52203;DHT22;38173;52.850;6.970;2023-05-23T07:00:18;11.40;99.90
52203;DHT22;38173;52.850;6.970;2023-05-23T07:02:44;11.50;99.90
52203;DHT22;38173;52.850;6.970;2023-05-23T07:05:27;11.50;99.90
52203;DHT22;38173;52.850;6.970;2023-05-23T07:07:54;11.50;99.90
52203;DHT22;38173;52.850;6.970;2023-05-23T07:10:26;11.50;99.90
52203;DHT22;38173;52.850;6.970;2023-05-23T07:13:09;11.50;99.90
52203;DHT22;38173;52.850;6.970;2023-05-23T07:18:35;11.50;99.90
52203;DHT22;38173;52.850;6.970;2023-05-23T07:21:07;11.50;99.90
52203;DHT22;38173;52.850;6.970;2023-05-23T07:23:45;11.50;99.90
52203;DHT22;38173;52.850;6.970;2023-05-23T07:26:11;11.60;99.90
52203;DHT22;38173;52.850;6.970;2023-05-23T07:28:37;11.60;99.90
52203;DHT22;38173;52.850;6.970;2023-05-23T07:31:23;11.60;99.90
52203;DHT22;38173;52.850;6.970;2023-05-23T07:33:59;11.70;99.90
52203;DHT22;38173;52.850;6.970;2023-05-23T07:36:28;11.70;99.90
52203;DHT22;38173;52.850;6.970;2023-05-23T07:39:02;11.70;99.90
52203;DHT22;38173;52.850;6.970;2023-05-23T07:41:32;11.80;99.90
52203;DHT22;38173;52.850;6.970;2023-05-23T07:44:02;11.80;99.90
52203;DHT22;38173;52.850;6.970;2023-05-23T07:46:35;11.90;99.90
52203;DHT22;38173;52.850;6.970;2023-05-23T07:51:47;12.00;99.90
52203;DHT22;38173;52.850;6.970;2023-05-23T07:54:13;12.00;99.90
52203;DHT22;38173;52.850;6.970;2023-05-23T07:56:44;12.00;99.90
52203;DHT22;38173;52.850;6.970;2023-05-23T07:59:13;12.00;99.90
52203;DHT22;38173;52.850;6.970;2023-05-23T08:01:41;12.00;99.90
52203;DHT22;38173;52.850;6.970;2023-05-23T08:04:07;12.00;99.90
52203;DHT22;38173;52.850;6.970;2023-05-23T08:06:48;12.10;99.90
52203;DHT22;38173;52.850;6.970;2023-05-23T08:09:29;12.20;99.90
52203;DHT22;38173;52.850;6.970;2023-05-23T08:12:08;12.30;99.90
52203;DHT22;38173;52.850;6.970;2023-05-23T08:14:37;12.30;99.90
52203;DHT22;38173;52.850;6.970;2023-05-23T08:17:11;12.40;99.90
52203;DHT22;38173;52.850;6.970;2023-05-23T08:19:43;12.40;99.90
52203;DHT22;38173;52.850;6.970;2023-05-23T08:22:09;12.60;99.90
52203;DHT22;38173;52.850;6.970;2023-05-23T08:24:35;12.60;99.90
52203;DHT22;38173;52.850;6.970;2023-05-23T08:27:01;12.70;99.90
52203;DHT22;38173;52.850;6.970;2023-05-23T08:29:30;12.80;99.90
52203;DHT22;38173;52.850;6.970;2023-05-23T08:31:56;12.80;99.90
52203;DHT22;38173;52.850;6.970;2023-05-23T08:34:22;12.80;99.90
52203;DHT22;38173;52.850;6.970;2023-05-23T08:36:57;12.80;99.90
52203;DHT22;38173;52.850;6.970;2023-05-23T08:39:23;12.80;99.90
52203;DHT22;38173;52.850;6.970;2023-05-23T08:41:49;12.90;99.90
52203;DHT22;38173;52.850;6.970;2023-05-23T08:44:15;13.10;99.90
52203;DHT22;38173;52.850;6.970;2023-05-23T08:46:45;13.20;99.90
52203;DHT22;38173;52.850;6.970;2023-05-23T08:49:13;13.30;99.90
52203;DHT22;38173;52.850;6.970;2023-05-23T08:51:42;13.40;99.90
52203;DHT22;38173;52.850;6.970;2023-05-23T08:54:14;13.40;99.90
52203;DHT22;38173;52.850;6.970;2023-05-23T08:56:44;13.50;99.90
52203;DHT22;38173;52.850;6.970;2023-05-23T08:59:10;13.50;99.90
52203;DHT22;38173;52.850;6.970;2023-05-23T09:01:42;13.60;99.90
52203;DHT22;38173;52.850;6.970;2023-05-23T09:04:23;13.80;99.90
52203;DHT22;38173;52.850;6.970;2023-05-23T09:06:51;14.10;99.90
52203;DHT22;38173;52.850;6.970;2023-05-23T09:09:22;14.30;99.90
52203;DHT22;38173;52.850;6.970;2023-05-23T09:11:55;14.40;99.90
52203;DHT22;38173;52.850;6.970;2023-05-23T09:17:07;14.90;99.90
52203;DHT22;38173;52.850;6.970;2023-05-23T09:19:32;15.10;99.90
52203;DHT22;38173;52.850;6.970;2023-05-23T09:21:59;15.10;99.90
52203;DHT22;38173;52.850;6.970;2023-05-23T09:24:34;15.20;99.90
52203;DHT22;38173;52.850;6.970;2023-05-23T09:27:07;15.40;99.90
52203;DHT22;38173;52.850;6.970;2023-05-23T09:29:36;15.50;99.90
52203;DHT22;38173;52.850;6.970;2023-05-23T09:32:19;15.40;99.90
52203;DHT22;38173;52.850;6.970;2023-05-23T09:37:38;15.20;99.90
52203;DHT22;38173;52.850;6.970;2023-05-23T09:40:06;15.00;99.90
52203;DHT22;38173;52.850;6.970;2023-05-23T09:42:42;14.90;99.90
52203;DHT22;38173;52.850;6.970;2023-05-23T09:45:09;14.90;99.90
52203;DHT22;38173;52.850;6.970;2023-05-23T09:47:35;15.10;99.90
52203;DHT22;38173;52.850;6.970;2023-05-23T09:50:02;15.20;99.90
52203;DHT22;38173;52.850;6.970;2023-05-23T09:52:43;15.30;99.90
52203;DHT22;38173;52.850;6.970;2023-05-23T09:55:11;15.30;99.90
52203;DHT22;38173;52.850;6.970;2023-05-23T09:57:46;15.30;99.90
52203;DHT22;38173;52.850;6.970;2023-05-23T10:00:35;15.20;99.90
52203;DHT22;38173;52.850;6.970;2023-05-23T10:03:12;15.20;99.90
52203;DHT22;38173;52.850;6.970;2023-05-23T10:08:17;15.30;99.90
52203;DHT22;38173;52.850;6.970;2023-05-23T10:14:08;15.20;99.90
52203;DHT22;38173;52.850;6.970;2023-05-23T10:16:58;15.20;99.90
52203;DHT22;38173;52.850;6.970;2023-05-23T10:22:03;15.20;99.90
52203;DHT22;38173;52.850;6.970;2023-05-23T10:24:30;15.20;99.90
52203;DHT22;38173;52.850;6.970;2023-05-23T10:27:00;15.30;99.90
52203;DHT22;38173;52.850;6.970;2023-05-23T10:29:29;15.40;99.90
52203;DHT22;38173;52.850;6.970;2023-05-23T10:31:58;15.50;99.90
52203;DHT22;38173;52.850;6.970;2023-05-23T10:37:15;15.60;99.90
52203;DHT22;38173;52.850;6.970;2023-05-23T10:39:51;15.60;99.90
52203;DHT22;38173;52.850;6.970;2023-05-23T10:42:40;15.70;99.90
52203;DHT22;38173;52.850;6.970;2023-05-23T10:47:43;15.70;99.90
52203;DHT22;38173;52.850;6.970;2023-05-23T10:50:28;15.70;99.90
52203;DHT22;38173;52.850;6.970;2023-05-23T10:53:02;15.70;99.90
52203;DHT22;38173;52.850;6.970;2023-05-23T10:55:35;15.80;99.90
52203;DHT22;38173;52.850;6.970;2023-05-23T10:58:14;15.90;99.90
52203;DHT22;38173;52.850;6.970;2023-05-23T11:06:09;15.80;99.90
52203;DHT22;38173;52.850;6.970;2023-05-23T11:09:04;15.80;99.90
52203;DHT22;38173;52.850;6.970;2023-05-23T11:14:16;16.00;99.90
52203;DHT22;38173;52.850;6.970;2023-05-23T11:16:58;16.30;99.70
52203;DHT22;38173;52.850;6.970;2023-05-23T11:19:38;16.40;98.60
52203;DHT22;38173;52.850;6.970;2023-05-23T11:22:11;16.50;98.40
52203;DHT22;38173;52.850;6.970;2023-05-23T11:24:51;16.40;96.20
52203;DHT22;38173;52.850;6.970;2023-05-23T11:27:30;16.20;96.60
52203;DHT22;38173;52.850;6.970;2023-05-23T11:30:10;16.10;99.40
52203;DHT22;38173;52.850;6.970;2023-05-23T11:32:48;16.20;99.80
52203;DHT22;38173;52.850;6.970;2023-05-23T11:35:20;16.20;99.10
52203;DHT22;38173;52.850;6.970;2023-05-23T11:37:57;16.30;98.60
52203;DHT22;38173;52.850;6.970;2023-05-23T11:43:09;16.60;95.40
52203;DHT22;38173;52.850;6.970;2023-05-23T11:45:39;16.50;93.70
52203;DHT22;38173;52.850;6.970;2023-05-23T11:48:06;16.40;94.00
52203;DHT22;38173;52.850;6.970;2023-05-23T11:50:42;16.30;95.80
52203;DHT22;38173;52.850;6.970;2023-05-23T11:53:10;16.30;95.40
52203;DHT22;38173;52.850;6.970;2023-05-23T11:55:49;16.30;94.90
52203;DHT22;38173;52.850;6.970;2023-05-23T11:58:21;16.30;95.20
52203;DHT22;38173;52.850;6.970;2023-05-23T12:00:50;16.20;94.80
52203;DHT22;38173;52.850;6.970;2023-05-23T12:03:23;16.20;95.60
52203;DHT22;38173;52.850;6.970;2023-05-23T12:05:49;16.40;95.70
52203;DHT22;38173;52.850;6.970;2023-05-23T12:08:18;16.50;94.50
52203;DHT22;38173;52.850;6.970;2023-05-23T12:10:51;16.60;94.90
52203;DHT22;38173;52.850;6.970;2023-05-23T12:13:17;16.70;96.30
52203;DHT22;38173;52.850;6.970;2023-05-23T12:18:42;16.40;92.50
52203;DHT22;38173;52.850;6.970;2023-05-23T12:21:24;16.30;95.20
52203;DHT22;38173;52.850;6.970;2023-05-23T12:24:10;16.40;94.30
52203;DHT22;38173;52.850;6.970;2023-05-23T12:27:27;16.80;94.70
52203;DHT22;38173;52.850;6.970;2023-05-23T12:29:48;17.20;92.90
52203;DHT22;38173;52.850;6.970;2023-05-23T12:32:14;17.60;90.40
52203;DHT22;38173;52.850;6.970;2023-05-23T12:34:40;17.60;84.20
52203;DHT22;38173;52.850;6.970;2023-05-23T12:37:11;17.50;87.00
52203;DHT22;38173;52.850;6.970;2023-05-23T12:39:49;17.20;85.90
52203;DHT22;38173;52.850;6.970;2023-05-23T12:42:24;16.80;85.50
52203;DHT22;38173;52.850;6.970;2023-05-23T12:45:01;16.60;87.00
52203;DHT22;38173;52.850;6.970;2023-05-23T12:47:31;16.60;90.30
52203;DHT22;38173;52.850;6.970;2023-05-23T12:50:05;17.00;90.50
52203;DHT22;38173;52.850;6.970;2023-05-23T12:52:32;17.10;86.50
52203;DHT22;38173;52.850;6.970;2023-05-23T12:55:01;17.30;84.60
52203;DHT22;38173;52.850;6.970;2023-05-23T12:57:28;17.20;83.40
52203;DHT22;38173;52.850;6.970;2023-05-23T12:59:55;17.10;85.70
52203;DHT22;38173;52.850;6.970;2023-05-23T13:02:21;16.90;85.90
52203;DHT22;38173;52.850;6.970;2023-05-23T13:04:50;17.00;85.00
52203;DHT22;38173;52.850;6.970;2023-05-23T13:07:16;16.90;85.70
52203;DHT22;38173;52.850;6.970;2023-05-23T13:09:52;16.80;83.30
52203;DHT22;38173;52.850;6.970;2023-05-23T13:12:21;16.80;85.60
52203;DHT22;38173;52.850;6.970;2023-05-23T13:14:57;16.90;87.20
52203;DHT22;38173;52.850;6.970;2023-05-23T13:17:32;17.20;85.40
52203;DHT22;38173;52.850;6.970;2023-05-23T13:19:58;17.10;86.70
52203;DHT22;38173;52.850;6.970;2023-05-23T13:22:27;17.00;82.70
52203;DHT22;38173;52.850;6.970;2023-05-23T13:25:00;17.20;83.40
52203;DHT22;38173;52.850;6.970;2023-05-23T13:27:26;17.40;81.90
52203;DHT22;38173;52.850;6.970;2023-05-23T13:29:51;17.30;81.50
52203;DHT22;38173;52.850;6.970;2023-05-23T13:32:18;17.40;78.90
52203;DHT22;38173;52.850;6.970;2023-05-23T13:34:45;17.80;78.20
52203;DHT22;38173;52.850;6.970;2023-05-23T13:37:19;18.00;76.90
52203;DHT22;38173;52.850;6.970;2023-05-23T13:40:00;17.90;77.80
52203;DHT22;38173;52.850;6.970;2023-05-23T13:42:27;17.40;76.40
52203;DHT22;38173;52.850;6.970;2023-05-23T13:44:55;17.10;78.90
52203;DHT22;38173;52.850;6.970;2023-05-23T13:47:35;17.00;81.70
52203;DHT22;38173;52.850;6.970;2023-05-23T13:50:24;17.80;82.50
52203;DHT22;38173;52.850;6.970;2023-05-23T13:52:53;18.90;74.90
52203;DHT22;38173;52.850;6.970;2023-05-23T13:55:31;19.30;71.60
52203;DHT22;38173;52.850;6.970;2023-05-23T13:58:00;18.90;68.60
52203;DHT22;38173;52.850;6.970;2023-05-23T14:00:29;18.40;69.20
52203;DHT22;38173;52.850;6.970;2023-05-23T14:03:10;18.90;69.70
52203;DHT22;38173;52.850;6.970;2023-05-23T14:05:42;19.10;69.70
52203;DHT22;38173;52.850;6.970;2023-05-23T14:08:14;19.20;70.10
52203;DHT22;38173;52.850;6.970;2023-05-23T14:10:46;19.60;67.90
52203;DHT22;38173;52.850;6.970;2023-05-23T14:13:13;20.30;65.80
52203;DHT22;38173;52.850;6.970;2023-05-23T14:15:40;21.00;64.80
52203;DHT22;38173;52.850;6.970;2023-05-23T14:18:06;21.40;64.50
52203;DHT22;38173;52.850;6.970;2023-05-23T14:20:38;21.80;59.50
52203;DHT22;38173;52.850;6.970;2023-05-23T14:23:13;22.30;59.40
52203;DHT22;38173;52.850;6.970;2023-05-23T14:25:39;22.80;57.30
52203;DHT22;38173;52.850;6.970;2023-05-23T14:28:05;23.10;58.10
52203;DHT22;38173;52.850;6.970;2023-05-23T14:30:33;23.00;55.70
52203;DHT22;38173;52.850;6.970;2023-05-23T14:32:59;22.20;55.60
52203;DHT22;38173;52.850;6.970;2023-05-23T14:35:34;21.70;57.40
52203;DHT22;38173;52.850;6.970;2023-05-23T14:38:04;21.80;58.80
52203;DHT22;38173;52.850;6.970;2023-05-23T14:40:30;22.40;57.00
52203;DHT22;38173;52.850;6.970;2023-05-23T14:42:56;22.70;55.60
52203;DHT22;38173;52.850;6.970;2023-05-23T14:45:23;22.90;54.30
52203;DHT22;38173;52.850;6.970;2023-05-23T14:48:19;22.50;54.80
52203;DHT22;38173;52.850;6.970;2023-05-23T14:50:44;22.30;57.30
52203;DHT22;38173;52.850;6.970;2023-05-23T14:53:10;22.50;56.10
52203;DHT22;38173;52.850;6.970;2023-05-23T14:55:36;22.90;55.60
52203;DHT22;38173;52.850;6.970;2023-05-23T14:58:17;23.00;53.20
52203;DHT22;38173;52.850;6.970;2023-05-23T15:00:51;21.80;52.60
52203;DHT22;38173;52.850;6.970;2023-05-23T15:03:20;20.50;54.50
52203;DHT22;38173;52.850;6.970;2023-05-23T15:06:04;19.50;58.10
52203;DHT22;38173;52.850;6.970;2023-05-23T15:08:36;19.10;58.10
52203;DHT22;38173;52.850;6.970;2023-05-23T15:11:13;18.60;58.40
52203;DHT22;38173;52.850;6.970;2023-05-23T15:13:45;18.00;62.80
52203;DHT22;38173;52.850;6.970;2023-05-23T15:16:12;17.90;62.90
52203;DHT22;38173;52.850;6.970;2023-05-23T15:18:48;18.20;62.90
52203;DHT22;38173;52.850;6.970;2023-05-23T15:21:16;19.20;59.60
52203;DHT22;38173;52.850;6.970;2023-05-23T15:23:45;20.20;57.30
52203;DHT22;38173;52.850;6.970;2023-05-23T15:26:11;20.80;54.50
52203;DHT22;38173;52.850;6.970;2023-05-23T15:28:42;21.30;53.70
52203;DHT22;38173;52.850;6.970;2023-05-23T15:31:34;21.00;54.30
52203;DHT22;38173;52.850;6.970;2023-05-23T15:34:04;20.30;56.00
52203;DHT22;38173;52.850;6.970;2023-05-23T15:36:34;19.60;57.50
52203;DHT22;38173;52.850;6.970;2023-05-23T15:39:15;18.90;58.20
52203;DHT22;38173;52.850;6.970;2023-05-23T15:41:48;18.30;59.90
52203;DHT22;38173;52.850;6.970;2023-05-23T15:44:14;18.80;61.10
52203;DHT22;38173;52.850;6.970;2023-05-23T15:46:44;20.10;59.80
52203;DHT22;38173;52.850;6.970;2023-05-23T15:49:19;21.10;57.80
52203;DHT22;38173;52.850;6.970;2023-05-23T15:51:55;21.70;56.10
52203;DHT22;38173;52.850;6.970;2023-05-23T15:54:21;21.80;54.10
52203;DHT22;38173;52.850;6.970;2023-05-23T15:56:53;21.10;55.50
52203;DHT22;38173;52.850;6.970;2023-05-23T16:02:14;20.90;55.60
52203;DHT22;38173;52.850;6.970;2023-05-23T16:04:43;21.40;55.60
52203;DHT22;38173;52.850;6.970;2023-05-23T16:07:10;21.90;54.60
52203;DHT22;38173;52.850;6.970;2023-05-23T16:09:46;22.30;52.00
52203;DHT22;38173;52.850;6.970;2023-05-23T16:12:21;22.40;52.60
52203;DHT22;38173;52.850;6.970;2023-05-23T16:14:50;22.50;53.10
52203;DHT22;38173;52.850;6.970;2023-05-23T16:17:16;22.90;51.20
52203;DHT22;38173;52.850;6.970;2023-05-23T16:19:48;23.30;51.40
52203;DHT22;38173;52.850;6.970;2023-05-23T16:22:15;23.80;50.10
52203;DHT22;38173;52.850;6.970;2023-05-23T16:24:41;24.10;51.50
52203;DHT22;38173;52.850;6.970;2023-05-23T16:27:34;24.50;50.60
52203;DHT22;38173;52.850;6.970;2023-05-23T16:30:08;24.70;48.90
52203;DHT22;38173;52.850;6.970;2023-05-23T16:32:42;24.50;49.30